createdAt,value
2022-10-18T00:02:20.185Z,15.11
2022-10-18T00:04:47.043Z,15.17
2022-10-18T00:07:13.602Z,15.19
2022-10-18T00:09:39.933Z,15.21
2022-10-18T00:12:06.335Z,15.26
2022-10-18T00:14:32.880Z,15.28
2022-10-18T00:16:59.341Z,15.30
2022-10-18T00:19:28.533Z,15.34
2022-10-18T00:21:55.831Z,15.22
2022-10-18T00:24:22.209Z,15.15
2022-10-18T00:26:48.613Z,15.12
2022-10-18T00:29:16.258Z,15.10
2022-10-18T00:31:46.820Z,15.09
2022-10-18T00:34:15.196Z,15.15
2022-10-18T00:36:42.843Z,15.10
2022-10-18T00:39:15.479Z,15.08
2022-10-18T00:41:42.136Z,15.02
2022-10-18T00:44:11.587Z,14.97
2022-10-18T00:46:41.113Z,14.90
2022-10-18T00:49:16.087Z,14.89
2022-10-18T00:51:49.784Z,14.81
2022-10-18T00:54:18.024Z,14.82
2022-10-18T00:56:45.176Z,14.80
2022-10-18T00:59:14.868Z,14.71
2022-10-18T01:01:41.387Z,14.80
2022-10-18T01:04:08.477Z,14.66
2022-10-18T01:09:47.318Z,14.64
2022-10-18T01:12:44.683Z,14.70
2022-10-18T01:15:26.380Z,14.70
2022-10-18T01:18:05.752Z,14.64
2022-10-18T01:21:14.488Z,14.71
2022-10-18T01:23:40.811Z,14.65
2022-10-18T01:26:36.188Z,14.58
2022-10-18T01:29:33.302Z,14.58
2022-10-18T01:32:04.216Z,14.58
2022-10-18T01:34:35.047Z,14.53
2022-10-18T01:37:04.845Z,14.53
2022-10-18T01:39:38.220Z,14.51
2022-10-18T01:42:08.787Z,14.49
2022-10-18T01:44:38.098Z,14.48
2022-10-18T01:47:07.940Z,14.49
2022-10-18T01:49:34.501Z,14.46
2022-10-18T01:52:00.877Z,14.47
2022-10-18T01:54:37.241Z,14.42
2022-10-18T01:57:08.740Z,14.43
2022-10-18T01:59:47.458Z,14.46
2022-10-18T02:02:35.272Z,14.49
2022-10-18T02:05:31.632Z,14.42
2022-10-18T02:08:22.919Z,14.42
2022-10-18T02:11:07.734Z,14.43
2022-10-18T02:13:41.753Z,14.33
2022-10-18T02:16:16.582Z,14.26
2022-10-18T02:18:51.841Z,14.37
2022-10-18T02:21:21.083Z,14.30
2022-10-18T02:23:48.643Z,14.26
2022-10-18T02:26:15.952Z,14.19
2022-10-18T02:28:43.071Z,14.19
2022-10-18T02:31:27.140Z,14.17
2022-10-18T02:34:06.910Z,14.14
2022-10-18T02:36:42.978Z,14.24
2022-10-18T02:39:16.563Z,14.17
2022-10-18T02:41:43.501Z,14.23
2022-10-18T02:44:11.149Z,14.26
2022-10-18T02:46:38.583Z,14.19
2022-10-18T02:49:04.991Z,14.23
2022-10-18T02:51:31.922Z,14.18
2022-10-18T02:53:58.296Z,14.11
2022-10-18T02:56:24.779Z,14.06
2022-10-18T02:58:51.072Z,14.06
2022-10-18T03:01:17.561Z,13.97
2022-10-18T03:03:44.180Z,14.01
2022-10-18T03:06:10.567Z,13.97
2022-10-18T03:08:36.954Z,13.91
2022-10-18T03:11:03.258Z,13.92
2022-10-18T03:15:56.005Z,13.75
2022-10-18T03:18:22.511Z,13.76
2022-10-18T03:20:48.868Z,13.78
2022-10-18T03:23:15.253Z,13.65
2022-10-18T03:25:44.248Z,13.67
2022-10-18T03:28:12.793Z,13.66
2022-10-18T03:30:39.182Z,13.58
2022-10-18T03:33:08.722Z,13.58
2022-10-18T03:35:35.092Z,13.49
2022-10-18T03:38:01.472Z,13.42
2022-10-18T03:40:27.970Z,13.45
2022-10-18T03:42:54.440Z,13.33
2022-10-18T03:45:20.818Z,13.33
2022-10-18T03:47:47.190Z,13.31
2022-10-18T03:50:13.627Z,13.26
2022-10-18T03:52:40.070Z,13.15
2022-10-18T03:55:06.731Z,13.07
2022-10-18T03:57:33.320Z,13.11
2022-10-18T03:59:59.600Z,13.02
2022-10-18T04:02:26.089Z,13.07
2022-10-18T04:04:52.789Z,12.89
2022-10-18T04:07:19.204Z,12.92
2022-10-18T04:09:45.595Z,12.99
2022-10-18T04:12:11.961Z,13.10
2022-10-18T04:14:38.345Z,13.01
2022-10-18T04:17:04.858Z,12.97
2022-10-18T04:19:31.213Z,12.96
2022-10-18T04:21:57.844Z,12.93
2022-10-18T04:24:24.312Z,12.95
2022-10-18T04:26:50.636Z,12.95
2022-10-18T04:29:19.502Z,12.95
2022-10-18T04:31:46.681Z,12.90
2022-10-18T04:34:13.169Z,12.89
2022-10-18T04:36:39.565Z,12.92
2022-10-18T04:39:07.970Z,12.86
2022-10-18T04:41:34.445Z,12.76
2022-10-18T04:44:00.841Z,12.80
2022-10-18T04:46:27.298Z,12.82
2022-10-18T04:48:53.660Z,12.78
2022-10-18T04:51:20.377Z,12.72
2022-10-18T04:53:46.773Z,12.71
2022-10-18T04:56:13.173Z,12.70
2022-10-18T04:58:39.657Z,12.63
2022-10-18T05:01:06.590Z,12.66
2022-10-18T05:03:33.628Z,12.66
2022-10-18T05:06:03.148Z,12.70
2022-10-18T05:08:30.866Z,12.71
2022-10-18T05:10:57.405Z,12.70
2022-10-18T05:13:23.911Z,12.75
2022-10-18T05:15:50.472Z,12.74
2022-10-18T05:18:16.818Z,12.80
2022-10-18T05:20:43.335Z,12.80
2022-10-18T05:23:12.589Z,12.96
2022-10-18T05:25:40.285Z,12.91
2022-10-18T05:28:10.774Z,12.94
2022-10-18T05:30:47.786Z,12.98
2022-10-18T05:33:14.113Z,13.00
2022-10-18T05:35:40.549Z,12.98
2022-10-18T05:38:07.045Z,13.00
2022-10-18T05:40:33.629Z,13.03
2022-10-18T05:43:00.045Z,13.08
2022-10-18T05:45:26.606Z,13.07
2022-10-18T05:47:52.958Z,13.10
2022-10-18T05:50:19.536Z,13.11
2022-10-18T05:52:45.924Z,13.15
2022-10-18T05:55:12.337Z,13.15
2022-10-18T05:57:38.749Z,13.22
2022-10-18T06:00:05.460Z,13.26
2022-10-18T06:02:38.378Z,13.31
2022-10-18T06:05:05.269Z,13.36
2022-10-18T06:07:31.977Z,13.39
2022-10-18T06:09:58.569Z,13.40
2022-10-18T06:12:25.119Z,13.40
2022-10-18T06:14:51.518Z,13.43
2022-10-18T06:17:17.916Z,13.48
2022-10-18T06:19:44.418Z,13.53
2022-10-18T06:22:11.164Z,13.57
2022-10-18T06:24:37.943Z,13.58
2022-10-18T06:27:08.746Z,13.71
2022-10-18T06:29:38.555Z,13.73
2022-10-18T06:32:06.440Z,13.77
2022-10-18T06:34:33.340Z,13.83
2022-10-18T06:37:00.153Z,13.90
2022-10-18T06:39:26.947Z,13.95
2022-10-18T06:41:53.633Z,14.01
2022-10-18T06:44:21.238Z,14.07
2022-10-18T06:46:48.817Z,14.17
2022-10-18T06:49:18.992Z,14.32
2022-10-18T06:51:46.158Z,14.46
2022-10-18T06:54:18.119Z,14.56
2022-10-18T06:56:45.721Z,15.72
2022-10-18T06:59:12.223Z,15.73
2022-10-18T07:01:38.683Z,15.83
2022-10-18T07:04:05.217Z,15.96
2022-10-18T07:06:31.544Z,16.39
2022-10-18T07:08:57.971Z,16.82
2022-10-18T07:11:25.385Z,17.31
2022-10-18T07:13:54.417Z,17.22
2022-10-18T07:16:21.162Z,17.50
2022-10-18T07:18:50.309Z,17.85
2022-10-18T07:21:19.350Z,18.17
2022-10-18T07:23:46.756Z,18.27
2022-10-18T07:26:19.385Z,18.41
2022-10-18T07:28:49.010Z,18.54
2022-10-18T07:31:16.009Z,18.47
2022-10-18T07:33:45.173Z,18.42
2022-10-18T07:36:12.649Z,18.65
2022-10-18T07:38:39.754Z,18.68
2022-10-18T07:41:07.602Z,18.75
2022-10-18T07:43:35.291Z,18.74
2022-10-18T07:46:04.478Z,18.82
2022-10-18T07:48:31.252Z,18.87
2022-10-18T07:51:00.491Z,18.91
2022-10-18T07:53:27.703Z,18.76
2022-10-18T07:56:01.343Z,18.77
2022-10-18T07:58:32.033Z,19.10
2022-10-18T08:01:03.262Z,18.98
2022-10-18T08:03:29.699Z,19.35
2022-10-18T08:05:56.488Z,19.20
2022-10-18T08:08:23.812Z,19.13
2022-10-18T08:10:50.584Z,19.06
2022-10-18T08:13:17.407Z,19.35
2022-10-18T08:15:44.325Z,19.59
2022-10-18T08:18:11.596Z,19.97
2022-10-18T08:20:43.289Z,20.31
2022-10-18T08:23:09.810Z,20.18
2022-10-18T08:28:07.788Z,20.89
2022-10-18T08:30:35.735Z,20.70
2022-10-18T08:33:03.158Z,20.44
2022-10-18T08:35:29.575Z,20.40
2022-10-18T08:37:56.004Z,19.93
2022-10-18T08:40:22.516Z,20.02
2022-10-18T08:43:03.858Z,19.90
2022-10-18T08:45:41.827Z,20.44
2022-10-18T08:48:19.237Z,19.93
2022-10-18T08:50:46.683Z,19.93
2022-10-18T08:53:25.177Z,20.11
2022-10-18T08:56:15.096Z,20.32
2022-10-18T08:58:44.943Z,19.94
2022-10-18T09:01:33.014Z,19.75
2022-10-18T09:04:24.569Z,19.82
2022-10-18T09:07:20.087Z,20.00
2022-10-18T09:10:00.992Z,20.08
2022-10-18T09:13:12.247Z,20.65
2022-10-18T09:16:03.834Z,22.10
2022-10-18T09:18:57.160Z,23.05
2022-10-18T09:21:36.881Z,22.32
2022-10-18T09:24:20.671Z,21.95
2022-10-18T09:26:51.721Z,21.67
2022-10-18T09:29:47.792Z,21.25
2022-10-18T09:32:23.329Z,21.09
2022-10-18T09:35:08.694Z,20.70
2022-10-18T09:37:35.232Z,20.48
2022-10-18T09:40:18.847Z,20.60
2022-10-18T09:43:16.045Z,20.92
2022-10-18T09:45:45.736Z,21.71
2022-10-18T09:48:36.590Z,22.63
2022-10-18T09:51:12.086Z,23.31
2022-10-18T09:54:04.323Z,23.23
2022-10-18T09:56:40.858Z,23.26
2022-10-18T09:59:32.376Z,23.18
2022-10-18T10:01:58.865Z,23.64
2022-10-18T10:04:25.303Z,23.99
2022-10-18T10:06:54.601Z,23.85
2022-10-18T10:09:36.069Z,23.69
2022-10-18T10:12:03.141Z,24.38
2022-10-18T10:14:30.686Z,24.43
2022-10-18T10:17:02.391Z,24.69
2022-10-18T10:20:02.065Z,24.40
2022-10-18T10:22:35.932Z,23.48
2022-10-18T10:25:02.961Z,23.33
2022-10-18T10:27:43.938Z,22.87
2022-10-18T10:30:34.962Z,23.35
2022-10-18T10:33:03.535Z,22.79
2022-10-18T10:35:54.459Z,22.42
2022-10-18T10:38:26.560Z,22.43
2022-10-18T10:40:54.052Z,23.24
2022-10-18T10:43:39.326Z,23.41
2022-10-18T10:46:09.931Z,23.46
2022-10-18T10:49:20.778Z,23.60
2022-10-18T10:51:43.806Z,24.09
2022-10-18T10:54:16.833Z,23.90
2022-10-18T10:57:05.076Z,23.80
2022-10-18T11:02:19.012Z,23.82
2022-10-18T11:04:47.366Z,24.35
2022-10-18T11:07:34.977Z,23.59
2022-10-18T11:10:07.497Z,23.93
2022-10-18T11:12:45.582Z,25.03
2022-10-18T11:15:25.565Z,24.26
2022-10-18T11:18:14.777Z,23.96
2022-10-18T11:21:01.957Z,24.47
2022-10-18T11:23:31.334Z,24.90
2022-10-18T11:26:09.535Z,24.76
2022-10-18T11:28:36.052Z,24.61
2022-10-18T11:31:33.378Z,24.80
2022-10-18T11:34:15.074Z,24.29
2022-10-18T11:37:29.963Z,24.14
2022-10-18T11:40:38.176Z,24.04
2022-10-18T11:43:19.652Z,23.47
2022-10-18T11:45:58.076Z,24.09
2022-10-18T11:48:45.856Z,25.11
2022-10-18T11:52:03.544Z,25.64
2022-10-18T11:54:52.144Z,24.63
2022-10-18T11:57:46.326Z,25.44
2022-10-18T12:00:25.259Z,25.89
2022-10-18T12:03:12.134Z,26.05
2022-10-18T12:05:40.989Z,26.05
2022-10-18T12:08:29.194Z,25.71
2022-10-18T12:11:06.394Z,26.57
2022-10-18T12:13:40.088Z,26.74
2022-10-18T12:16:09.197Z,27.19
2022-10-18T12:18:43.147Z,27.03
2022-10-18T12:21:12.636Z,27.50
2022-10-18T12:23:49.454Z,25.92
2022-10-18T12:26:17.272Z,24.82
2022-10-18T12:29:20.316Z,25.51
2022-10-18T12:31:52.807Z,26.72
2022-10-18T12:34:22.173Z,26.00
2022-10-18T12:37:00.817Z,27.00
2022-10-18T12:39:43.358Z,27.32
2022-10-18T12:42:22.915Z,27.99
2022-10-18T12:44:59.930Z,28.37
2022-10-18T12:47:28.684Z,27.15
2022-10-18T12:49:58.793Z,26.98
2022-10-18T12:52:28.808Z,27.52
2022-10-18T12:55:04.076Z,27.08
2022-10-18T12:57:51.989Z,27.25
2022-10-18T13:00:30.462Z,26.52
2022-10-18T13:03:18.108Z,26.65
2022-10-18T13:05:56.077Z,27.18
2022-10-18T13:08:29.996Z,28.00
2022-10-18T13:11:08.805Z,28.06
2022-10-18T13:13:40.673Z,27.47
2022-10-18T13:16:14.873Z,27.00
2022-10-18T13:19:10.268Z,26.41
2022-10-18T13:22:10.216Z,26.79
2022-10-18T13:24:46.967Z,27.94
2022-10-18T13:27:35.471Z,27.48
2022-10-18T13:30:28.125Z,26.87
2022-10-18T13:33:00.560Z,27.28
2022-10-18T13:35:55.329Z,27.60
2022-10-18T13:38:43.089Z,28.57
2022-10-18T13:41:20.129Z,28.94
2022-10-18T13:43:53.055Z,28.56
2022-10-18T13:46:20.889Z,28.27
2022-10-18T13:48:49.557Z,27.14
2022-10-18T13:51:18.981Z,26.84
2022-10-18T13:53:54.432Z,26.59
2022-10-18T13:56:28.370Z,26.97
2022-10-18T13:59:19.774Z,26.72
2022-10-18T14:02:50.333Z,27.39
2022-10-18T14:05:49.544Z,27.10
2022-10-18T14:08:21.993Z,27.18
2022-10-18T14:11:14.744Z,27.34
2022-10-18T14:13:52.187Z,27.35
2022-10-18T14:16:37.093Z,27.40
2022-10-18T14:19:25.141Z,27.23
2022-10-18T14:22:03.375Z,27.89
2022-10-18T14:24:31.019Z,27.45
2022-10-18T14:27:34.035Z,27.29
2022-10-18T14:30:15.180Z,27.31
2022-10-18T14:32:48.182Z,26.58
2022-10-18T14:35:32.024Z,26.76
2022-10-18T14:37:59.569Z,27.11
2022-10-18T14:40:31.429Z,26.97
2022-10-18T14:43:14.881Z,26.40
2022-10-18T14:45:42.802Z,26.04
2022-10-18T14:48:20.530Z,26.53
2022-10-18T14:50:59.067Z,26.13
2022-10-18T14:53:30.750Z,26.02
2022-10-18T14:56:00.836Z,25.97
2022-10-18T14:58:27.776Z,26.25
2022-10-18T15:00:54.635Z,25.79
2022-10-18T15:03:21.876Z,25.47
2022-10-18T15:05:56.798Z,25.04
2022-10-18T15:08:26.704Z,25.22
2022-10-18T15:10:53.277Z,25.00
2022-10-18T15:13:19.922Z,24.85
2022-10-18T15:15:46.843Z,24.12
2022-10-18T15:18:24.912Z,24.12
2022-10-18T15:21:08.077Z,23.79
2022-10-18T15:23:34.834Z,23.81
2022-10-18T15:26:05.979Z,23.74
2022-10-18T15:28:36.186Z,23.46
2022-10-18T15:31:03.712Z,23.24
2022-10-18T15:33:34.396Z,23.07
2022-10-18T15:36:12.505Z,22.93
2022-10-18T15:38:39.283Z,22.92
2022-10-18T15:41:41.374Z,22.94
2022-10-18T15:44:31.804Z,22.22
2022-10-18T15:47:21.165Z,22.02
2022-10-18T15:49:51.188Z,21.75
2022-10-18T15:52:38.621Z,21.49
2022-10-18T15:55:30.257Z,21.24
2022-10-18T15:58:12.657Z,20.93
2022-10-18T16:00:39.151Z,20.77
2022-10-18T16:03:08.480Z,20.67
2022-10-18T16:05:39.088Z,20.73
2022-10-18T16:08:05.613Z,20.75
2022-10-18T16:10:32.111Z,20.33
2022-10-18T16:12:58.703Z,20.07
2022-10-18T16:15:25.127Z,19.84
2022-10-18T16:17:51.995Z,19.50
2022-10-18T16:20:24.453Z,19.43
2022-10-18T16:22:50.907Z,19.33
2022-10-18T16:25:17.355Z,19.20
2022-10-18T16:27:43.878Z,19.00
2022-10-18T16:30:18.045Z,19.02
2022-10-18T16:32:53.433Z,18.83
2022-10-18T16:35:19.819Z,18.68
2022-10-18T16:37:46.192Z,18.58
2022-10-18T16:40:22.266Z,18.65
2022-10-18T16:42:49.018Z,18.61
2022-10-18T16:45:15.815Z,18.41
2022-10-18T16:47:42.257Z,18.43
2022-10-18T16:52:59.563Z,18.35
2022-10-18T16:55:26.372Z,18.29
2022-10-18T16:57:53.170Z,18.17
2022-10-18T17:00:22.807Z,18.17
2022-10-18T17:02:49.973Z,18.08
2022-10-18T17:05:17.900Z,17.89
2022-10-18T17:07:45.610Z,17.76
2022-10-18T17:10:18.067Z,17.63
2022-10-18T17:12:44.641Z,17.62
2022-10-18T17:15:11.924Z,17.59
2022-10-18T17:17:38.871Z,17.37
2022-10-18T17:20:07.252Z,17.45
2022-10-18T17:22:34.307Z,17.32
2022-10-18T17:25:00.726Z,17.30
2022-10-18T17:27:27.158Z,17.29
2022-10-18T17:29:53.575Z,17.19
2022-10-18T17:32:19.942Z,17.21
2022-10-18T17:34:46.417Z,17.26
2022-10-18T17:37:13.597Z,17.11
2022-10-18T17:39:40.187Z,16.99
2022-10-18T17:42:07.207Z,17.04
2022-10-18T17:44:33.976Z,16.94
2022-10-18T17:47:00.499Z,16.94
2022-10-18T17:49:27.028Z,16.92
2022-10-18T17:51:53.542Z,16.92
2022-10-18T17:54:19.946Z,16.88
2022-10-18T17:56:48.135Z,16.86
2022-10-18T17:59:16.363Z,16.82
2022-10-18T18:01:42.842Z,16.67
2022-10-18T18:04:09.546Z,16.70
2022-10-18T18:06:38.936Z,16.75
2022-10-18T18:09:15.943Z,16.64
2022-10-18T18:11:48.141Z,16.65
2022-10-18T18:14:15.992Z,16.57
2022-10-18T18:16:44.604Z,16.47
2022-10-18T18:19:12.599Z,16.34
2022-10-18T18:21:40.652Z,16.39
2022-10-18T18:24:07.698Z,16.33
2022-10-18T18:26:35.933Z,16.37
2022-10-18T18:31:38.854Z,16.35
2022-10-18T18:34:09.513Z,16.24
2022-10-18T18:36:36.296Z,16.16
2022-10-18T18:39:05.627Z,16.14
2022-10-18T18:41:32.506Z,16.10
2022-10-18T18:44:01.332Z,16.06
2022-10-18T18:46:29.976Z,16.03
2022-10-18T18:48:57.807Z,16.00
2022-10-18T18:51:24.899Z,15.97
2022-10-18T18:53:52.453Z,15.90
2022-10-18T18:56:23.446Z,15.84
2022-10-18T18:58:50.448Z,15.88
2022-10-18T19:01:26.062Z,15.80
2022-10-18T19:03:54.745Z,15.85
2022-10-18T19:06:22.450Z,15.80
2022-10-18T19:08:49.542Z,15.73
2022-10-18T19:11:18.736Z,15.62
2022-10-18T19:13:45.699Z,15.61
2022-10-18T19:16:20.494Z,15.64
2022-10-18T19:19:00.923Z,15.59
2022-10-18T19:21:30.780Z,15.52
2022-10-18T19:23:58.464Z,15.54
2022-10-18T19:26:44.398Z,15.46
2022-10-18T19:29:23.209Z,15.48
2022-10-18T19:31:55.198Z,15.48
2022-10-18T19:34:23.135Z,15.47
2022-10-18T19:36:50.575Z,15.43
2022-10-18T19:39:18.492Z,15.41
2022-10-18T19:41:50.565Z,15.32
2022-10-18T19:44:20.335Z,15.36
2022-10-18T19:46:47.807Z,15.27
2022-10-18T19:49:15.055Z,15.26
2022-10-18T19:51:41.849Z,15.21
2022-10-18T19:54:08.353Z,15.13
2022-10-18T19:56:34.703Z,15.22
2022-10-18T19:59:01.334Z,15.23
2022-10-18T20:01:28.742Z,15.23
2022-10-18T20:03:55.853Z,15.21
2022-10-18T20:06:22.712Z,15.30
2022-10-18T20:08:49.882Z,15.07
2022-10-18T20:11:18.998Z,15.07
2022-10-18T20:13:46.180Z,15.05
2022-10-18T20:16:14.629Z,15.02
2022-10-18T20:18:44.650Z,15.00
2022-10-18T20:21:13.781Z,14.88
2022-10-18T20:23:41.621Z,14.90
2022-10-18T20:26:15.544Z,14.93
2022-10-18T20:28:57.324Z,15.01
2022-10-18T20:31:27.801Z,14.99
2022-10-18T20:33:56.884Z,14.91
2022-10-18T20:36:23.474Z,14.90
2022-10-18T20:38:49.961Z,14.92
2022-10-18T20:41:20.592Z,14.96
2022-10-18T20:44:01.862Z,14.87
2022-10-18T20:46:33.995Z,14.87
2022-10-18T20:49:01.170Z,14.89
2022-10-18T20:51:27.905Z,15.02
2022-10-18T20:53:54.520Z,14.87
2022-10-18T20:56:24.066Z,14.86
2022-10-18T20:58:53.190Z,14.83
2022-10-18T21:01:25.099Z,14.77
2022-10-18T21:03:53.281Z,14.67
2022-10-18T21:06:28.533Z,14.69
2022-10-18T21:09:04.704Z,14.64
2022-10-18T21:11:34.512Z,14.57
2022-10-18T21:14:05.331Z,14.57
2022-10-18T21:16:33.760Z,14.53
2022-10-18T21:19:13.072Z,14.50
2022-10-18T21:21:43.925Z,14.59
2022-10-18T21:24:11.191Z,14.48
2022-10-18T21:26:37.799Z,14.57
2022-10-18T21:29:04.981Z,14.61
2022-10-18T21:31:36.957Z,14.48
2022-10-18T21:34:05.998Z,14.43
2022-10-18T21:36:35.547Z,14.47
2022-10-18T21:39:03.942Z,14.41
2022-10-18T21:41:31.015Z,14.42
2022-10-18T21:43:57.501Z,14.43
2022-10-18T21:46:24.448Z,14.56
2022-10-18T21:48:53.475Z,14.47
2022-10-18T21:51:21.937Z,14.40
2022-10-18T21:53:51.199Z,14.48
2022-10-18T21:56:20.573Z,14.49
2022-10-18T21:58:47.320Z,14.49
2022-10-18T22:01:17.750Z,14.41
2022-10-18T22:03:47.356Z,14.26
2022-10-18T22:06:14.894Z,14.27
2022-10-18T22:08:47.295Z,14.31
2022-10-18T22:11:14.281Z,14.32
2022-10-18T22:13:41.623Z,14.31
2022-10-18T22:16:11.057Z,14.29
2022-10-18T22:18:37.476Z,14.30
2022-10-18T22:21:06.657Z,14.28
2022-10-18T22:23:52.814Z,14.26
2022-10-18T22:26:22.769Z,14.19
2022-10-18T22:28:58.653Z,14.10
2022-10-18T22:31:27.745Z,14.18
2022-10-18T22:33:56.572Z,14.05
2022-10-18T22:36:24.164Z,13.96
2022-10-18T22:38:50.739Z,13.90
2022-10-18T22:41:17.299Z,13.94
2022-10-18T22:43:43.791Z,13.85
2022-10-18T22:46:11.497Z,13.83
2022-10-18T22:48:37.863Z,13.74
2022-10-18T22:51:05.348Z,13.66
2022-10-18T22:53:32.780Z,13.52
2022-10-18T22:55:59.429Z,13.49
2022-10-18T22:58:25.976Z,13.52
2022-10-18T23:00:59.166Z,13.65
2022-10-18T23:03:25.563Z,13.51
2022-10-18T23:05:51.956Z,13.49
2022-10-18T23:08:18.283Z,13.48
2022-10-18T23:10:44.863Z,13.38
2022-10-18T23:13:11.182Z,13.44
2022-10-18T23:15:40.472Z,13.50
2022-10-18T23:18:06.934Z,13.53
2022-10-18T23:20:33.395Z,13.54
2022-10-18T23:22:59.788Z,13.68
2022-10-18T23:25:27.170Z,13.68
2022-10-18T23:27:53.742Z,13.70
2022-10-18T23:30:20.167Z,13.73
2022-10-18T23:32:46.677Z,13.81
2022-10-18T23:35:12.972Z,13.86
2022-10-18T23:37:39.364Z,13.92
2022-10-18T23:40:06.380Z,13.99
2022-10-18T23:42:32.783Z,13.99
2022-10-18T23:44:59.144Z,13.93
2022-10-18T23:47:25.857Z,13.89
2022-10-18T23:49:53.160Z,13.92
2022-10-18T23:52:19.543Z,13.95
2022-10-18T23:54:46.130Z,13.89
2022-10-18T23:57:12.692Z,13.81
2022-10-18T23:59:38.971Z,13.70
